Time;durP1;ratioP1;P1;durP2;ratioP2;P2;SDS_P1;SDS_P2;PMS_P1;PMS_P2;Temp;Humidity;BMP_temperature;BMP_pressure;BME280_temperature;BME280_humidity;BME280_pressure;Samples;Min_cycle;Max_cycle;Signal;HPM_P1;HPM_P2
2021/11/10 00:01:20;;;;;;;6.20;2.70;;;;;;;;;;4917736;29;20515;-43
2021/11/10 00:03:46;;;;;;;7.25;2.90;;;;;;;;;;4917288;29;20052;-43
2021/11/10 00:06:12;;;;;;;7.18;2.90;;;;;;;;;;4917635;29;20035;-44
2021/11/10 00:08:38;;;;;;;4.28;2.50;;;;;;;;;;4917742;29;20107;-44
2021/11/10 00:11:04;;;;;;;5.65;2.80;;;;;;;;;;4917336;29;20032;-43
2021/11/10 00:13:30;;;;;;;5.05;2.78;;;;;;;;;;4917269;29;20150;-44
2021/11/10 00:15:56;;;;;;;9.45;3.08;;;;;;;;;;4917483;29;20028;-44
2021/11/10 00:18:22;;;;;;;7.20;2.95;;;;;;;;;;4917486;29;20040;-46
2021/11/10 00:20:49;;;;;;;5.72;2.53;;;;;;;;;;4917211;29;20405;-46
2021/11/10 00:23:15;;;;;;;8.75;2.78;;;;;;;;;;4917283;29;20111;-45
2021/11/10 00:25:41;;;;;;;9.30;3.63;;;;;;;;;;4917035;29;20067;-46
2021/11/10 00:28:07;;;;;;;8.05;2.70;;;;;;;;;;4917194;29;20244;-46
2021/11/10 00:30:33;;;;;;;5.15;2.78;;;;;;;;;;4917016;29;20181;-47
2021/11/10 00:32:59;;;;;;;5.03;2.90;;;;;;;;;;4916892;29;20032;-46
2021/11/10 00:35:25;;;;;;;7.75;3.65;;;;;;;;;;4916847;29;20043;-44
2021/11/10 00:37:51;;;;;;;7.57;2.90;;;;;;;;;;4916854;29;20032;-46
2021/11/10 00:40:17;;;;;;;3.60;2.78;;;;;;;;;;4916788;29;20032;-47
2021/11/10 00:42:43;;;;;;;5.30;2.95;;;;;;;;;;4916756;29;20034;-47
2021/11/10 00:45:10;;;;;;;5.68;2.35;;;;;;;;;;4916846;29;20036;-47
2021/11/10 00:47:36;;;;;;;9.00;3.80;;;;;;;;;;4916691;29;20091;-46
2021/11/10 00:50:04;;;;;;;5.05;2.67;;;16.70;76.60;;;;;;4916928;29;20036;-47
2021/11/10 00:52:30;;;;;;;5.32;2.92;;;;;;;;;;4916832;29;20020;-47
2021/11/10 00:54:56;;;;;;;3.90;2.50;;;;;;;;;;4915945;29;20059;-46
2021/11/10 00:57:22;;;;;;;5.05;2.88;;;;;;;;;;4917075;29;20039;-46
2021/11/10 00:59:48;;;;;;;5.13;2.85;;;;;;;;;;4916413;29;20127;-46
2021/11/10 01:02:14;;;;;;;7.50;3.17;;;;;;;;;;4916465;29;20095;-45
2021/11/10 01:04:41;;;;;;;5.63;2.78;;;;;;;;;;4916609;29;20040;-46
2021/11/10 01:07:07;;;;;;;5.63;2.80;;;;;;;;;;4916372;29;20385;-46
2021/11/10 01:09:41;;;;;;;4.75;2.53;;;16.50;78.20;;;;;;4916261;29;20032;-45
2021/11/10 01:12:08;;;;;;;4.43;2.55;;;16.50;77.30;;;;;;4916287;29;20140;-45
2021/11/10 01:14:34;;;;;;;6.25;3.10;;;;;;;;;;4916365;29;20059;-43
2021/11/10 01:17:00;;;;;;;4.22;2.58;;;;;;;;;;4916199;29;20568;-43
2021/11/10 01:19:26;;;;;;;6.35;2.67;;;;;;;;;;4916117;29;20028;-42
2021/11/10 01:21:52;;;;;;;5.80;3.00;;;;;;;;;;4916168;29;20032;-43
2021/11/10 01:24:18;;;;;;;7.95;3.03;;;;;;;;;;4916514;29;20121;-43
2021/11/10 01:26:45;;;;;;;4.68;2.72;;;;;;;;;;4916628;29;20030;-43
2021/11/10 01:29:11;;;;;;;5.60;2.97;;;;;;;;;;4895906;29;20105;-43
2021/11/10 01:31:37;;;;;;;4.15;2.60;;;;;;;;;;4916259;29;20047;-43
2021/11/10 01:34:09;;;;;;;5.68;3.00;;;;;;;;;;4916223;29;20028;-43
2021/11/10 01:36:36;;;;;;;6.63;2.70;;;16.50;76.80;;;;;;4915952;29;20083;-43
2021/11/10 01:39:04;;;;;;;6.03;2.90;;;16.50;76.90;;;;;;4915870;29;20055;-43
2021/11/10 01:41:30;;;;;;;4.90;3.00;;;;;;;;;;4916008;29;20383;-44
2021/11/10 01:43:56;;;;;;;5.38;3.08;;;;;;;;;;4915959;29;20519;-43
2021/11/10 01:46:22;;;;;;;4.55;3.13;;;;;;;;;;4915804;29;20029;-43
2021/11/10 01:48:48;;;;;;;4.85;2.47;;;;;;;;;;4915730;29;20031;-43
2021/11/10 01:51:14;;;;;;;5.28;2.70;;;;;;;;;;4915740;29;20124;-46
2021/11/10 01:53:40;;;;;;;5.78;2.90;;;;;;;;;;4915717;29;20043;-45
2021/11/10 01:56:06;;;;;;;5.25;3.00;;;;;;;;;;4915715;29;20028;-46
2021/11/10 01:58:32;;;;;;;5.65;2.70;;;;;;;;;;4915580;29;20186;-47
2021/11/10 02:00:58;;;;;;;7.10;2.90;;;;;;;;;;4915606;29;20028;-46
2021/11/10 02:03:24;;;;;;;6.25;3.15;;;;;;;;;;4915359;29;20067;-46
2021/11/10 02:05:50;;;;;;;6.05;2.90;;;;;;;;;;4917564;29;20057;-46
2021/11/10 02:08:16;;;;;;;6.40;2.92;;;;;;;;;;4922202;29;20038;-43
2021/11/10 02:10:42;;;;;;;6.82;3.40;;;;;;;;;;4922106;29;20028;-47
2021/11/10 02:13:08;;;;;;;4.55;3.08;;;;;;;;;;4921787;29;20114;-48
2021/11/10 02:15:34;;;;;;;5.70;3.10;;;;;;;;;;4922271;29;20032;-47
2021/11/10 02:18:04;;;;;;;4.95;2.80;;;;;;;;;;4921851;29;20435;-46
2021/11/10 02:20:33;;;;;;;7.03;3.00;;;16.40;78.60;;;;;;4922350;29;20044;-45
2021/11/10 02:22:59;;;;;;;5.60;3.17;;;;;;;;;;4922053;29;20091;-45
2021/11/10 02:25:29;;;;;;;6.18;3.22;;;;;;;;;;4921662;29;20131;-45
2021/11/10 02:27:56;;;;;;;4.30;3.20;;;16.40;78.70;;;;;;4921837;29;20048;-45
2021/11/10 02:30:22;;;;;;;5.53;3.13;;;;;;;;;;4921892;29;20032;-46
2021/11/10 02:32:50;;;;;;;4.38;3.00;;;16.40;78.90;;;;;;4921637;29;20032;-45
2021/11/10 02:35:18;;;;;;;5.57;3.25;;;16.40;78.00;;;;;;4921970;29;20055;-45
2021/11/10 02:37:45;;;;;;;7.05;3.72;;;;;;;;;;4921572;29;20032;-46
2021/11/10 02:40:11;;;;;;;8.63;3.60;;;;;;;;;;4921734;29;20036;-44
2021/11/10 02:42:37;;;;;;;5.15;3.13;;;;;;;;;;4921605;29;20115;-46
2021/11/10 02:45:03;;;;;;;6.25;2.95;;;;;;;;;;4921525;29;20115;-44
2021/11/10 02:47:29;;;;;;;8.10;3.30;;;;;;;;;;4921894;29;20024;-45
2021/11/10 02:49:55;;;;;;;7.00;3.20;;;;;;;;;;4921469;29;20039;-46
2021/11/10 02:52:22;;;;;;;7.47;3.78;;;;;;;;;;4921386;29;20060;-45
2021/11/10 02:54:53;;;;;;;5.55;3.17;;;16.30;72.50;;;;;;4921646;29;20040;-46
2021/11/10 02:57:20;;;;;;;6.97;3.55;;;16.30;77.90;;;;;;4921687;29;20024;-46
2021/11/10 02:59:46;;;;;;;6.55;3.33;;;;;;;;;;4921664;29;20057;-45
2021/11/10 03:02:12;;;;;;;7.43;3.70;;;;;;;;;;4921094;29;20579;-45
2021/11/10 03:04:44;;;;;;;6.35;3.05;;;16.30;72.20;;;;;;4921691;29;20123;-46
2021/11/10 03:07:10;;;;;;;6.28;3.40;;;;;;;;;;4921420;29;20031;-45
2021/11/10 03:09:36;;;;;;;5.00;3.05;;;;;;;;;;4921598;29;20028;-45
2021/11/10 03:12:04;;;;;;;6.47;3.70;;;16.30;77.40;;;;;;4921524;29;20035;-45
2021/11/10 03:14:32;;;;;;;7.97;3.30;;;16.30;77.00;;;;;;4921542;29;20028;-44
2021/11/10 03:16:58;;;;;;;6.25;3.38;;;;;;;;;;4920251;29;20058;-46
2021/11/10 03:19:24;;;;;;;5.80;3.35;;;;;;;;;;4918323;29;20032;-46
2021/11/10 03:21:50;;;;;;;6.20;3.00;;;;;;;;;;4918147;29;20055;-43
2021/11/10 03:24:16;;;;;;;5.28;3.20;;;;;;;;;;4918242;29;20043;-45
2021/11/10 03:26:43;;;;;;;6.10;3.35;;;;;;;;;;4918217;29;20039;-45
2021/11/10 03:29:09;;;;;;;4.95;2.95;;;;;;;;;;4918387;29;20047;-45
2021/11/10 03:31:36;;;;;;;6.03;3.40;;;16.30;77.60;;;;;;4918299;29;20024;-46
2021/11/10 03:34:03;;;;;;;7.00;3.58;;;16.20;77.90;;;;;;4918001;29;20246;-45
2021/11/10 03:36:29;;;;;;;6.85;3.42;;;;;;;;;;4917983;29;20059;-46
2021/11/10 03:38:55;;;;;;;6.00;3.58;;;;;;;;;;4917963;29;20081;-45
2021/11/10 03:41:22;;;;;;;8.50;4.07;;;16.20;77.80;;;;;;4918355;29;20032;-43
2021/11/10 03:43:51;;;;;;;8.85;4.07;;;;;;;;;;4918025;29;20087;-43
2021/11/10 03:46:17;;;;;;;6.03;3.53;;;;;;;;;;4917830;29;20476;-43
2021/11/10 03:48:43;;;;;;;6.97;3.45;;;;;;;;;;4917871;29;20035;-43
2021/11/10 03:51:09;;;;;;;5.20;3.10;;;;;;;;;;4917706;29;20583;-43
2021/11/10 03:53:35;;;;;;;6.38;3.45;;;;;;;;;;4917738;29;20424;-43
2021/11/10 03:56:01;;;;;;;7.05;3.70;;;;;;;;;;4917849;29;20115;-43
2021/11/10 03:58:27;;;;;;;10.23;4.43;;;;;;;;;;4917945;29;20159;-43
2021/11/10 04:00:53;;;;;;;9.50;4.13;;;;;;;;;;4917821;29;20020;-45
2021/11/10 04:03:19;;;;;;;7.75;4.07;;;;;;;;;;4917323;29;20052;-45
2021/11/10 04:05:44;;;;;;;9.13;3.95;;;16.30;98.00;;;;;;4917618;29;20127;-45
2021/11/10 04:08:10;;;;;;;7.93;3.80;;;16.30;75.00;;;;;;4917449;29;20417;-46
2021/11/10 04:10:37;;;;;;;5.15;3.35;;;16.30;97.20;;;;;;4917462;29;20032;-46
2021/11/10 04:13:04;;;;;;;8.65;3.70;;;16.30;97.20;;;;;;4917369;29;20020;-46
2021/11/10 04:15:30;;;;;;;5.78;3.03;;;;;;;;;;4917302;29;20036;-45
2021/11/10 04:17:56;;;;;;;8.80;4.15;;;;;;;;;;4917514;29;20432;-43
2021/11/10 04:20:22;;;;;;;8.10;4.15;;;;;;;;;;4917193;29;20039;-43
2021/11/10 04:22:48;;;;;;;6.60;3.75;;;;;;;;;;4917500;29;20146;-43
2021/11/10 04:25:14;;;;;;;8.77;3.83;;;;;;;;;;4916997;29;20517;-44
2021/11/10 04:27:40;;;;;;;6.30;3.10;;;;;;;;;;4917109;29;20033;-43
2021/11/10 04:30:08;;;;;;;5.60;3.40;;;16.20;74.70;;;;;;4915918;29;20067;-43
2021/11/10 04:32:34;;;;;;;6.85;3.65;;;;;;;;;;4917061;29;20488;-43
2021/11/10 04:35:00;;;;;;;6.65;3.20;;;;;;;;;;4917208;29;20032;-43
2021/11/10 04:37:26;;;;;;;7.68;3.90;;;;;;;;;;4917237;29;20025;-44
2021/11/10 04:39:52;;;;;;;5.70;3.30;;;;;;;;;;4917125;29;20395;-44
2021/11/10 04:42:18;;;;;;;7.22;3.88;;;;;;;;;;4917026;29;20025;-44
2021/11/10 04:44:48;;;;;;;7.22;3.80;;;;;;;;;;4916923;29;20051;-44
2021/11/10 04:47:14;;;;;;;7.18;3.92;;;;;;;;;;4916774;29;20028;-43
2021/11/10 04:49:40;;;;;;;6.55;4.10;;;;;;;;;;4916948;29;20031;-43
2021/11/10 04:52:06;;;;;;;8.07;3.70;;;;;;;;;;4916591;29;20028;-44
2021/11/10 04:54:33;;;;;;;5.13;3.67;;;16.10;75.40;;;;;;4916883;29;20024;-45
2021/11/10 04:57:01;;;;;;;10.68;4.22;;;16.10;75.30;;;;;;4896537;29;20028;-45
2021/11/10 04:59:27;;;;;;;8.35;4.45;;;;;;;;;;4915644;29;20107;-47
2021/11/10 05:04:35;;;;;;;6.95;4.00;;;16.00;70.10;;;;;;4916381;29;20439;-45
2021/11/10 05:07:02;;;;;;;6.95;4.07;;;;;;;;;;4916327;29;20024;-45
2021/11/10 05:09:28;;;;;;;7.88;3.63;;;;;;;;;;4916508;29;20028;-47
2021/11/10 05:11:54;;;;;;;7.45;4.00;;;;;;;;;;4916605;29;20405;-45
2021/11/10 05:14:20;;;;;;;8.50;4.03;;;;;;;;;;4916502;29;20403;-45
2021/11/10 05:16:46;;;;;;;7.90;4.40;;;;;;;;;;4916727;29;20074;-45
2021/11/10 05:19:12;;;;;;;7.53;4.05;;;;;;;;;;4916129;29;20479;-45
2021/11/10 05:21:38;;;;;;;8.25;3.33;;;;;;;;;;4916137;29;20024;-45
2021/11/10 05:24:05;;;;;;;7.50;3.72;;;;;;;;;;4916306;29;20081;-45
2021/11/10 05:26:31;;;;;;;7.95;4.10;;;;;;;;;;4916217;29;20032;-45
2021/11/10 05:28:57;;;;;;;7.60;3.72;;;;;;;;;;4916313;29;20035;-46
2021/11/10 05:31:23;;;;;;;6.80;3.75;;;;;;;;;;4916253;29;20123;-46
2021/11/10 05:33:49;;;;;;;9.60;3.72;;;;;;;;;;4916321;29;20156;-46
2021/11/10 05:36:15;;;;;;;7.93;3.95;;;;;;;;;;4916236;29;20028;-46
2021/11/10 05:38:41;;;;;;;7.95;4.00;;;;;;;;;;4916205;29;20539;-46
2021/11/10 05:41:07;;;;;;;8.35;4.18;;;;;;;;;;4915523;29;20032;-45
2021/11/10 05:43:33;;;;;;;7.72;4.13;;;;;;;;;;4915758;29;20028;-47
2021/11/10 05:46:00;;;;;;;6.15;3.70;;;16.00;76.90;;;;;;4916033;29;20036;-46
2021/11/10 05:48:26;;;;;;;6.72;3.60;;;;;;;;;;4915708;29;20532;-45
2021/11/10 05:50:52;;;;;;;5.25;3.20;;;;;;;;;;4916139;29;20036;-47
2021/11/10 05:53:18;;;;;;;8.90;4.43;;;;;;;;;;4915648;29;20032;-46
2021/11/10 05:55:45;;;;;;;7.47;4.20;;;;;;;;;;4915876;29;20099;-46
2021/11/10 05:58:11;;;;;;;6.90;3.90;;;;;;;;;;4915829;29;20042;-45
2021/11/10 06:00:37;;;;;;;6.15;3.60;;;;;;;;;;4915612;29;20073;-45
2021/11/10 06:03:04;;;;;;;6.65;4.05;;;;;;;;;;4915356;29;20503;-46
2021/11/10 06:05:30;;;;;;;10.00;4.22;;;;;;;;;;4915431;29;20120;-46
2021/11/10 06:07:56;;;;;;;6.75;4.20;;;16.00;76.90;;;;;;4915585;29;20035;-46
2021/11/10 06:10:22;;;;;;;9.85;4.78;;;;;;;;;;4915508;29;20028;-46
2021/11/10 06:12:49;;;;;;;6.30;3.50;;;;;;;;;;4915780;29;20411;-45
2021/11/10 06:15:15;;;;;;;6.20;3.95;;;;;;;;;;4915767;29;20156;-46
2021/11/10 06:17:41;;;;;;;6.03;3.60;;;;;;;;;;4915683;29;20028;-44
2021/11/10 06:20:08;;;;;;;7.05;3.92;;;16.20;76.20;;;;;;4915689;29;20032;-45
2021/11/10 06:22:34;;;;;;;7.43;3.92;;;;;;;;;;4915323;29;20495;-45
2021/11/10 06:25:01;;;;;;;7.40;3.95;;;16.40;77.30;;;;;;4915391;29;20511;-44
2021/11/10 06:27:27;;;;;;;7.55;4.07;;;;;;;;;;4915527;29;20028;-46
2021/11/10 06:29:53;;;;;;;9.35;4.65;;;;;;;;;;4915601;29;20028;-47
2021/11/10 06:32:19;;;;;;;6.70;4.22;;;;;;;;;;4915538;29;20385;-46
2021/11/10 06:34:45;;;;;;;10.00;4.25;;;;;;;;;;4915223;29;20028;-45
2021/11/10 06:37:11;;;;;;;9.25;4.40;;;;;;;;;;4915195;29;20084;-45
2021/11/10 06:39:37;;;;;;;7.38;3.97;;;;;;;;;;4915460;29;20024;-45
2021/11/10 06:42:04;;;;;;;7.82;4.30;;;16.70;77.30;;;;;;4915267;29;20088;-45
2021/11/10 06:44:30;;;;;;;9.85;4.50;;;;;;;;;;4915420;29;20485;-44
2021/11/10 06:46:59;;;;;;;11.93;4.57;;;;;;;;;;4915382;29;20044;-44
2021/11/10 06:49:25;;;;;;;8.20;4.60;;;;;;;;;;4915129;29;20039;-45
2021/11/10 06:51:51;;;;;;;6.90;4.38;;;;;;;;;;4915110;29;20028;-44
2021/11/10 06:54:17;;;;;;;7.30;4.10;;;;;;;;;;4918305;29;20502;-44
2021/11/10 06:56:44;;;;;;;9.52;4.75;;;;;;;;;;4918856;29;20038;-45
2021/11/10 06:59:10;;;;;;;10.30;4.55;;;;;;;;;;4918679;29;20069;-44
2021/11/10 07:01:36;;;;;;;9.95;4.82;;;;;;;;;;4918453;29;20032;-44
2021/11/10 07:04:02;;;;;;;9.77;4.60;;;;;;;;;;4918519;29;20040;-43
2021/11/10 07:06:28;;;;;;;9.50;5.15;;;;;;;;;;4918755;29;20024;-44
2021/11/10 07:08:54;;;;;;;7.20;4.88;;;;;;;;;;4918552;29;20036;-43
2021/11/10 07:11:20;;;;;;;8.75;4.80;;;;;;;;;;4918828;29;20070;-44
2021/11/10 07:13:47;;;;;;;11.95;4.95;;;;;;;;;;4918647;29;20488;-43
2021/11/10 07:16:13;;;;;;;10.07;5.22;;;;;;;;;;4918694;29;20027;-43
2021/11/10 07:18:39;;;;;;;9.30;4.93;;;;;;;;;;4918624;29;20091;-44
2021/11/10 07:21:06;;;;;;;9.30;4.75;;;;;;;;;;4918803;29;20115;-43
2021/11/10 07:23:32;;;;;;;9.35;4.90;;;;;;;;;;4918458;29;20043;-46
2021/11/10 07:25:58;;;;;;;10.43;5.75;;;;;;;;;;4918404;29;20521;-45
2021/11/10 07:28:24;;;;;;;12.95;4.82;;;;;;;;;;4918644;29;20078;-45
2021/11/10 07:30:50;;;;;;;8.98;4.90;;;;;;;;;;4918312;29;20550;-46
2021/11/10 07:33:17;;;;;;;11.38;6.15;;;;;;;;;;4917571;29;20395;-45
2021/11/10 07:35:43;;;;;;;18.55;5.63;;;;;;;;;;4916934;29;20128;-46
2021/11/10 07:38:10;;;;;;;13.85;5.80;;;;;;;;;;4916830;29;20051;-45
2021/11/10 07:40:36;;;;;;;15.70;5.45;;;;;;;;;;4896761;29;20060;-46
2021/11/10 07:43:03;;;;;;;10.38;5.22;;;16.40;78.80;;;;;;4912873;29;20036;-46
2021/11/10 07:45:35;;;;;;;11.90;5.30;;;;;;;;;;4917268;29;20032;-45
2021/11/10 07:48:03;;;;;;;9.10;4.75;;;16.30;80.50;;;;;;4917938;29;20096;-49
2021/11/10 07:50:30;;;;;;;9.25;5.70;;;16.30;82.10;;;;;;4918290;29;20048;-45
2021/11/10 07:52:56;;;;;;;13.07;5.82;;;;;;;;;;4918205;29;20052;-45
2021/11/10 07:55:23;;;;;;;10.57;5.68;;;;;;;;;;4918352;29;20040;-45
2021/11/10 07:57:50;;;;;;;13.23;5.28;;;;;;;;;;4918007;29;20034;-44
2021/11/10 08:00:19;;;;;;;10.70;5.15;;;16.20;75.90;;;;;;4917978;29;20073;-43
2021/11/10 08:02:45;;;;;;;13.82;5.88;;;;;;;;;;4917247;29;20056;-43
2021/11/10 08:05:12;;;;;;;8.10;5.18;;;16.30;79.80;;;;;;4917407;29;20040;-44
2021/11/10 08:07:38;;;;;;;10.88;5.68;;;;;;;;;;4917546;29;20415;-44
2021/11/10 08:10:05;;;;;;;28.85;6.53;;;16.20;81.00;;;;;;4917587;29;20555;-44
2021/11/10 08:12:32;;;;;;;9.68;5.93;;;16.20;79.30;;;;;;4917651;29;20163;-44
2021/11/10 08:15:00;;;;;;;12.85;5.38;;;15.90;81.60;;;;;;4917596;29;20035;-44
2021/11/10 08:17:26;;;;;;;13.45;6.25;;;;;;;;;;4917868;29;20076;-46
2021/11/10 08:19:52;;;;;;;10.48;5.45;;;;;;;;;;4917741;29;20032;-45
2021/11/10 08:22:18;;;;;;;13.73;5.38;;;;;;;;;;4917725;29;20475;-45
2021/11/10 08:24:48;;;;;;;12.68;5.93;;;;;;;;;;4917289;29;20407;-45
2021/11/10 08:27:14;;;;;;;12.07;6.20;;;;;;;;;;4917568;29;20063;-45
2021/11/10 08:29:40;;;;;;;13.48;5.45;;;;;;;;;;4917260;29;20379;-45
2021/11/10 08:32:06;;;;;;;10.88;5.47;;;;;;;;;;4917457;29;20522;-44
2021/11/10 08:34:32;;;;;;;10.77;5.75;;;;;;;;;;4917549;29;20039;-44
2021/11/10 08:36:58;;;;;;;17.92;6.00;;;;;;;;;;4917509;29;20024;-46
2021/11/10 08:39:24;;;;;;;11.65;5.70;;;;;;;;;;4917290;29;20083;-46
2021/11/10 08:41:50;;;;;;;12.05;5.93;;;;;;;;;;4917057;29;20483;-45
2021/11/10 08:44:17;;;;;;;12.88;5.95;;;;;;;;;;4917111;29;20049;-45
2021/11/10 08:46:44;;;;;;;11.80;5.57;;;16.20;79.00;;;;;;4917254;29;20055;-44
2021/11/10 08:49:10;;;;;;;9.23;5.18;;;;;;;;;;4897059;29;20080;-45
2021/11/10 08:51:36;;;;;;;12.88;6.10;;;;;;;;;;4916867;29;20024;-47
2021/11/10 08:54:02;;;;;;;11.48;5.45;;;;;;;;;;4917153;29;20123;-45
2021/11/10 08:56:30;;;;;;;11.52;5.55;;;16.10;81.00;;;;;;4916765;29;20024;-45
2021/11/10 08:58:58;;;;;;;13.10;6.75;;;16.10;78.70;;;;;;4916603;29;20039;-43
2021/11/10 09:01:24;;;;;;;13.50;6.45;;;;;;;;;;4916867;29;20399;-44
2021/11/10 09:03:50;;;;;;;11.85;5.75;;;;;;;;;;4916425;29;20396;-44
2021/11/10 09:06:16;;;;;;;10.35;5.28;;;;;;;;;;4916903;29;20036;-44
2021/11/10 09:08:42;;;;;;;9.15;5.80;;;;;;;;;;4916593;29;20028;-44
2021/11/10 09:11:08;;;;;;;11.32;5.60;;;;;;;;;;4916619;29;20035;-44
2021/11/10 09:13:34;;;;;;;13.23;5.68;;;;;;;;;;4916930;29;20150;-44
2021/11/10 09:16:01;;;;;;;10.35;5.22;;;16.10;80.20;;;;;;4915852;29;20104;-45
2021/11/10 09:18:27;;;;;;;10.15;5.32;;;;;;;;;;4916416;29;20150;-44
2021/11/10 09:20:53;;;;;;;10.23;5.13;;;16.10;79.60;;;;;;4916479;29;20446;-44
2021/11/10 09:23:20;;;;;;;9.70;5.55;;;16.10;79.90;;;;;;4916422;29;20024;-44
2021/11/10 09:25:48;;;;;;;10.05;5.60;;;16.10;79.80;;;;;;4916446;29;20394;-45
2021/11/10 09:28:17;;;;;;;13.85;5.63;;;16.20;80.40;;;;;;4916683;29;20083;-44
2021/11/10 09:30:45;;;;;;;10.20;5.65;;;16.30;79.50;;;;;;4916248;29;20391;-43
2021/11/10 09:33:14;;;;;;;7.68;4.70;;;;;;;;;;4916387;29;20099;-43
2021/11/10 09:35:41;;;;;;;9.68;4.95;;;;;;;;;;4916040;29;20230;-42
2021/11/10 09:38:08;;;;;;;9.77;5.63;;;;;;;;;;4916095;29;20039;-44
2021/11/10 09:40:36;;;;;;;9.43;5.38;;;16.40;79.80;;;;;;4915983;29;20024;-44
2021/11/10 09:43:03;;;;;;;12.63;5.68;;;;;;;;;;4916041;29;20032;-43
2021/11/10 09:45:33;;;;;;;11.30;5.22;;;16.30;79.80;;;;;;4915888;29;20051;-43
2021/11/10 09:48:03;;;;;;;9.73;5.20;;;16.50;79.80;;;;;;4915973;29;20025;-43
2021/11/10 09:50:31;;;;;;;7.45;5.25;;;16.50;79.10;;;;;;4915993;29;20032;-43
2021/11/10 09:52:59;;;;;;;10.27;4.65;;;16.50;79.30;;;;;;4915997;29;20024;-45
2021/11/10 09:55:28;;;;;;;11.63;5.25;;;16.50;78.80;;;;;;4915883;29;20059;-43
2021/11/10 09:57:55;;;;;;;9.85;5.03;;;16.40;78.40;;;;;;4916120;29;20122;-46
2021/11/10 10:00:37;;;;;;;12.07;5.78;;;14.30;72.30;;;;;;4915640;29;20483;-43
2021/11/10 10:03:04;;;;;;;12.15;5.80;;;16.40;77.40;;;;;;4915635;29;20100;-46
2021/11/10 10:05:31;;;;;;;10.55;5.32;;;;;;;;;;4915640;29;20127;-46
2021/11/10 10:07:57;;;;;;;8.85;5.30;;;;;;;;;;4915936;29;20089;-43
2021/11/10 10:10:27;;;;;;;11.82;5.40;;;16.40;72.00;;;;;;4915910;29;20428;-44
2021/11/10 10:12:55;;;;;;;9.68;5.00;;;16.30;79.80;;;;;;4916098;29;20415;-44
2021/11/10 10:15:22;;;;;;;10.75;5.38;;;16.40;76.70;;;;;;4915795;29;20024;-43
2021/11/10 10:17:56;;;;;;;8.13;4.65;;;16.30;75.60;;;;;;4915670;29;20037;-43
2021/11/10 10:20:27;;;;;;;8.00;4.85;;;16.30;74.60;;;;;;4916285;29;20032;-43
2021/11/10 10:22:54;;;;;;;10.43;5.68;;;16.40;75.20;;;;;;4915751;29;20040;-42
2021/11/10 10:25:21;;;;;;;10.77;5.10;;;16.30;75.20;;;;;;4915575;29;20392;-43
2021/11/10 10:27:57;;;;;;;8.23;4.50;;;16.30;71.80;;;;;;4918599;29;20081;-43
2021/11/10 10:30:24;;;;;;;11.10;5.50;;;;;;;;;;4919542;29;20030;-44
2021/11/10 10:33:08;;;;;;;7.13;4.47;;;16.20;71.80;;;;;;4919317;29;20471;-43
2021/11/10 10:35:56;;;;;;;8.98;4.60;;;16.30;73.30;;;;;;4919380;29;20060;-44
2021/11/10 10:38:26;;;;;;;10.63;4.65;;;16.30;78.80;;;;;;4919346;29;20028;-43
2021/11/10 10:40:56;;;;;;;10.88;4.88;;;16.30;78.80;;;;;;4919150;29;20059;-43
2021/11/10 10:43:26;;;;;;;9.73;4.25;;;16.40;73.50;;;;;;4900788;29;20115;-43
2021/11/10 10:45:55;;;;;;;8.38;4.50;;;16.40;79.00;;;;;;4919312;29;20403;-44
2021/11/10 10:48:26;;;;;;;8.43;5.28;;;16.30;73.70;;;;;;4919356;29;20039;-43
2021/11/10 10:51:13;;;;;;;10.77;5.32;;;16.50;79.40;;;;;;4919042;29;20024;-45
2021/11/10 10:53:57;;;;;;;11.40;5.50;;;16.60;75.20;;;;;;4919314;29;20024;-45
2021/11/10 10:56:28;;;;;;;10.63;5.32;;;16.50;74.80;;;;;;4919236;29;20054;-45
2021/11/10 10:58:58;;;;;;;13.95;6.75;;;16.60;81.70;;;;;;4918850;29;20103;-46
2021/11/10 11:01:28;;;;;;;14.70;6.65;;;16.60;75.90;;;;;;4918831;29;20032;-45
2021/11/10 11:03:54;;;;;;;10.30;5.47;;;;;;;;;;4918739;29;20044;-46
2021/11/10 11:06:37;;;;;;;12.90;6.75;;;16.60;78.20;;;;;;4918846;29;20045;-48
2021/11/10 11:09:22;;;;;;;14.65;6.53;;;16.50;78.30;;;;;;4919120;29;20032;-46
2021/11/10 11:14:45;;;;;;;15.27;7.25;;;16.50;83.70;;;;;;4911783;29;20043;-46
2021/11/10 11:17:26;;;;;;;14.15;5.97;;;16.50;78.30;;;;;;4918916;29;20025;-47
2021/11/10 11:19:58;;;;;;;16.60;6.38;;;16.40;78.00;;;;;;4918602;29;20119;-46
2021/11/10 11:22:30;;;;;;;15.68;5.88;;;16.50;83.70;;;;;;4918899;29;20104;-47
2021/11/10 11:24:56;;;;;;;10.35;5.55;;;;;;;;;;4918428;29;20069;-47
2021/11/10 11:27:22;;;;;;;14.80;5.70;;;;;;;;;;4918749;29;20035;-47
2021/11/10 11:30:07;;;;;;;10.45;5.22;;;16.50;78.00;;;;;;4918618;29;20036;-48
2021/11/10 11:32:42;;;;;;;8.82;4.35;;;16.50;77.90;;;;;;4918302;29;20053;-46
2021/11/10 11:35:10;;;;;;;8.82;5.05;;;;;;;;;;4918362;29;20075;-46
2021/11/10 11:37:37;;;;;;;8.10;4.38;;;;;;;;;;4918238;29;20492;-46
2021/11/10 11:40:12;;;;;;;12.43;5.30;;;16.50;77.90;;;;;;4917876;29;20076;-44
2021/11/10 11:42:38;;;;;;;10.50;4.53;;;;;;;;;;4918215;29;20059;-46
2021/11/10 11:45:07;;;;;;;9.52;4.82;;;16.50;83.80;;;;;;4918231;29;20067;-43
2021/11/10 11:47:33;;;;;;;7.10;4.18;;;;;;;;;;4918137;29;20028;-46
2021/11/10 11:50:03;;;;;;;8.52;4.60;;;;;;;;;;4917993;29;20031;-44
2021/11/10 11:52:32;;;;;;;10.20;5.18;;;16.50;83.80;;;;;;4918405;29;20103;-46
2021/11/10 11:55:01;;;;;;;9.15;4.13;;;16.60;83.80;;;;;;4918248;29;20075;-46
2021/11/10 11:57:29;;;;;;;8.85;4.47;;;16.60;84.00;;;;;;4917948;29;20391;-46
2021/11/10 11:59:57;;;;;;;8.07;5.28;;;16.70;83.60;;;;;;4917936;29;20031;-45
2021/11/10 12:02:29;;;;;;;10.25;4.88;;;16.70;79.00;;;;;;4917781;29;20055;-45
2021/11/10 12:04:56;;;;;;;9.55;5.25;;;;;;;;;;4917914;29;20036;-44
2021/11/10 12:07:54;;;;;;;12.05;5.75;;;16.80;79.60;;;;;;4918057;29;20028;-47
2021/11/10 12:10:22;;;;;;;16.70;5.70;;;16.80;80.10;;;;;;4918084;29;20031;-46
2021/11/10 12:13:17;;;;;;;11.00;5.88;;;16.90;79.60;;;;;;4917655;29;20111;-45
2021/11/10 12:16:08;;;;;;;9.18;5.13;;;16.80;79.40;;;;;;4918019;29;20024;-45
2021/11/10 12:18:46;;;;;;;13.15;5.35;;;16.80;79.70;;;;;;4917766;29;20106;-45
2021/11/10 12:21:12;;;;;;;7.68;4.68;;;;;;;;;;4917633;29;20107;-43
2021/11/10 12:24:05;;;;;;;12.95;5.28;;;16.70;85.30;;;;;;4917694;29;20024;-46
2021/11/10 12:26:32;;;;;;;9.43;4.72;;;;;;;;;;4917441;29;20063;-46
2021/11/10 12:28:59;;;;;;;10.18;4.85;;;16.70;85.30;;;;;;4917699;29;20036;-46
2021/11/10 12:31:33;;;;;;;8.80;4.78;;;16.60;79.50;;;;;;4917606;29;20030;-43
2021/11/10 12:34:03;;;;;;;6.85;4.10;;;16.70;84.70;;;;;;4917668;29;20032;-46
2021/11/10 12:36:47;;;;;;;;;;;16.70;80.50;;;;;;4918047;29;20096;-47
2021/11/10 12:39:13;;;;;;;6.13;4.05;;;;;;;;;;4917172;29;19907;-45
2021/11/10 12:41:49;;;;;;;9.52;3.80;;;16.70;78.60;;;;;;4917225;29;20032;-46
2021/11/10 12:45:00;;;;;;;9.07;4.78;;;16.80;78.10;;;;;;4917266;29;20032;-45
2021/11/10 12:47:46;;;;;;;7.55;3.97;;;16.70;76.80;;;;;;4899610;29;20040;-46
2021/11/10 12:50:35;;;;;;;7.57;3.92;;;16.80;75.80;;;;;;4916254;29;20091;-46
2021/11/10 12:53:15;;;;;;;8.18;3.88;;;16.90;80.90;;;;;;4917057;29;20032;-44
2021/11/10 12:55:56;;;;;;;8.68;3.83;;;16.80;76.20;;;;;;4917272;29;20043;-44
2021/11/10 12:58:24;;;;;;;7.35;3.28;;;16.90;81.90;;;;;;4917077;29;20039;-45
2021/11/10 13:00:51;;;;;;;7.32;3.70;;;17.00;81.70;;;;;;4917175;29;20107;-45
2021/11/10 13:03:28;;;;;;;8.35;3.65;;;17.00;75.50;;;;;;4897364;29;20053;-45
2021/11/10 13:06:05;;;;;;;5.57;4.07;;;17.00;80.10;;;;;;4916961;29;20048;-44
2021/11/10 13:08:51;;;;;;;6.40;3.50;;;17.10;75.60;;;;;;4916990;29;20032;-45
2021/11/10 13:11:19;;;;;;;5.03;3.63;;;17.10;79.00;;;;;;4916974;29;20050;-45
2021/11/10 13:13:45;;;;;;;6.43;3.55;;;;;;;;;;4916970;29;20031;-45
2021/11/10 13:16:11;;;;;;;5.88;3.35;;;;;;;;;;4916756;29;20032;-45
2021/11/10 13:18:37;;;;;;;4.95;3.22;;;;;;;;;;4916799;29;20529;-46
2021/11/10 13:21:03;;;;;;;6.45;3.30;;;;;;;;;;4916708;29;20087;-44
2021/11/10 13:23:32;;;;;;;4.85;3.25;;;;;;;;;;4916661;29;20024;-45
2021/11/10 13:25:59;;;;;;;6.50;3.00;;;17.40;79.80;;;;;;4916242;29;20036;-44
2021/11/10 13:28:25;;;;;;;5.70;3.35;;;;;;;;;;4916330;29;20031;-44
2021/11/10 13:30:58;;;;;;;4.38;3.03;;;17.60;78.90;;;;;;4916658;29;20095;-45
2021/11/10 13:33:33;;;;;;;3.92;2.70;;;17.60;73.30;;;;;;4916463;29;20032;-46
2021/11/10 13:36:15;;;;;;;6.50;3.33;;;17.70;73.20;;;;;;4916066;29;20031;-47
2021/11/10 13:38:44;;;;;;;4.70;2.85;;;17.70;78.90;;;;;;4916364;29;20118;-44
2021/11/10 13:41:31;;;;;;;5.33;2.73;;;17.80;73.50;;;;;;4916358;29;20075;-45
2021/11/10 13:43:59;;;;;;;5.18;2.60;;;17.90;80.30;;;;;;4916407;29;20300;-45
2021/11/10 13:46:29;;;;;;;6.30;2.90;;;18.00;74.60;;;;;;4916096;29;20088;-45
2021/11/10 13:49:05;;;;;;;4.18;2.70;;;18.00;74.50;;;;;;4916204;29;20035;-43
2021/11/10 13:51:32;;;;;;;7.93;2.42;;;18.10;79.00;;;;;;4916287;29;20079;-44
2021/11/10 13:54:02;;;;;;;2.72;2.22;;;18.30;74.40;;;;;;4916282;29;20055;-45
2021/11/10 13:56:51;;;;;;;3.80;2.60;;;18.30;80.10;;;;;;4915949;29;20043;-44
2021/11/10 13:59:23;;;;;;;3.70;2.10;;;18.20;80.40;;;;;;4916347;29;20435;-44
2021/11/10 14:01:53;;;;;;;4.13;2.42;;;18.30;75.20;;;;;;4915493;29;20032;-45
2021/11/10 14:04:21;;;;;;;3.85;2.50;;;18.30;80.10;;;;;;4915929;29;20147;-43